createdAt,value
2023-06-09T00:00:12.793Z,70.61
2023-06-09T00:03:03.681Z,70.65
2023-06-09T00:05:33.620Z,70.90
2023-06-09T00:08:02.215Z,70.84
2023-06-09T00:10:30.194Z,70.90
2023-06-09T00:12:58.473Z,71.04
2023-06-09T00:15:26.576Z,71.07
2023-06-09T00:17:55.579Z,71.15
2023-06-09T00:20:25.320Z,71.30
2023-06-09T00:22:56.616Z,71.24
2023-06-09T00:25:24.785Z,71.46
2023-06-09T00:27:52.915Z,71.27
2023-06-09T00:30:38.009Z,71.37
2023-06-09T00:33:07.656Z,71.58
2023-06-09T00:35:35.925Z,71.59
2023-06-09T00:38:04.361Z,71.71
2023-06-09T00:40:32.471Z,71.78
2023-06-09T00:43:01.044Z,71.88
2023-06-09T00:45:29.091Z,72.02
2023-06-09T00:47:57.434Z,72.06
2023-06-09T00:50:25.865Z,71.98
2023-06-09T00:52:55.246Z,72.12
2023-06-09T00:55:23.860Z,72.18
2023-06-09T00:57:56.820Z,72.28
2023-06-09T01:00:29.773Z,72.25
2023-06-09T01:03:02.053Z,72.38
2023-06-09T01:05:35.756Z,72.48
2023-06-09T01:08:10.106Z,72.51
2023-06-09T01:11:11.012Z,72.55
2023-06-09T01:13:55.709Z,72.62
2023-06-09T01:16:28.753Z,72.64
2023-06-09T01:19:00.982Z,72.60
2023-06-09T01:21:46.804Z,72.81
2023-06-09T01:24:33.781Z,72.69
2023-06-09T01:27:03.951Z,72.76
2023-06-09T01:29:34.075Z,72.97
2023-06-09T01:32:04.556Z,72.97
2023-06-09T01:34:32.555Z,72.94
2023-06-09T01:37:03.676Z,72.80
2023-06-09T01:39:32.443Z,72.79
2023-06-09T01:42:00.406Z,72.90
2023-06-09T01:44:28.394Z,73.04
2023-06-09T01:46:56.999Z,73.26
2023-06-09T01:50:04.850Z,73.59
2023-06-09T01:52:45.672Z,73.48
2023-06-09T01:55:24.517Z,73.57
2023-06-09T01:57:58.013Z,73.76
2023-06-09T02:00:28.014Z,73.76
2023-06-09T02:03:00.235Z,73.59
2023-06-09T02:05:31.125Z,73.84
2023-06-09T02:07:59.749Z,73.90
2023-06-09T02:10:28.374Z,73.91
2023-06-09T02:12:56.387Z,73.95
2023-06-09T02:15:24.390Z,73.92
2023-06-09T02:17:52.401Z,74.04
2023-06-09T02:20:21.047Z,74.17
2023-06-09T02:22:49.155Z,74.27
2023-06-09T02:25:17.365Z,74.25
2023-06-09T02:27:46.961Z,74.34
2023-06-09T02:30:15.003Z,74.40
2023-06-09T02:32:43.811Z,74.26
2023-06-09T02:35:12.024Z,74.34
2023-06-09T02:37:43.121Z,74.46
2023-06-09T02:40:11.552Z,74.69
2023-06-09T02:42:40.147Z,74.73
2023-06-09T02:45:10.204Z,74.71
2023-06-09T02:47:38.654Z,74.80
2023-06-09T02:50:07.150Z,74.75
2023-06-09T02:52:35.918Z,74.76
2023-06-09T02:55:04.858Z,74.99
2023-06-09T02:57:33.722Z,75.09
2023-06-09T03:00:01.853Z,75.09
2023-06-09T03:02:30.225Z,75.20
2023-06-09T03:04:58.284Z,75.21
2023-06-09T03:07:26.879Z,75.27
2023-06-09T03:09:55.075Z,75.41
2023-06-09T03:12:23.276Z,75.34
2023-06-09T03:14:52.158Z,75.25
2023-06-09T03:17:20.649Z,75.14
2023-06-09T03:19:49.719Z,75.06
2023-06-09T03:22:17.673Z,75.06
2023-06-09T03:24:49.233Z,75.14
2023-06-09T03:27:18.764Z,75.23
2023-06-09T03:29:46.922Z,75.28
2023-06-09T03:32:14.943Z,75.64
2023-06-09T03:34:42.934Z,75.68
2023-06-09T03:37:13.406Z,75.89
2023-06-09T03:39:42.173Z,76.00
2023-06-09T03:42:11.124Z,76.24
2023-06-09T03:44:39.188Z,76.31
2023-06-09T03:47:07.602Z,76.39
2023-06-09T03:49:36.614Z,76.39
2023-06-09T03:52:07.542Z,76.10
2023-06-09T03:54:36.596Z,75.87
2023-06-09T03:57:05.001Z,75.57
2023-06-09T03:59:33.263Z,75.23
2023-06-09T04:02:01.403Z,75.03
2023-06-09T04:04:29.811Z,75.17
2023-06-09T04:07:00.404Z,74.80
2023-06-09T04:09:28.687Z,74.09
2023-06-09T04:11:56.758Z,73.07
2023-06-09T04:14:25.879Z,72.47
2023-06-09T04:16:55.077Z,72.16
2023-06-09T04:19:23.843Z,72.08
2023-06-09T04:21:51.989Z,71.93
2023-06-09T04:24:21.209Z,71.68
2023-06-09T04:26:50.862Z,71.22
2023-06-09T04:29:19.016Z,70.72
2023-06-09T04:31:47.532Z,70.35
2023-06-09T04:34:17.268Z,70.28
2023-06-09T04:36:48.353Z,70.01
2023-06-09T04:39:17.114Z,69.90
2023-06-09T04:41:48.772Z,69.58
2023-06-09T04:44:17.606Z,69.33
2023-06-09T04:46:47.850Z,69.15
2023-06-09T04:49:19.015Z,68.78
2023-06-09T04:51:48.653Z,68.62
2023-06-09T04:54:29.985Z,68.30
2023-06-09T04:57:01.407Z,67.52
2023-06-09T04:59:30.057Z,67.46
2023-06-09T05:01:58.989Z,67.18
2023-06-09T05:04:27.657Z,66.39
2023-06-09T05:06:56.421Z,65.80
2023-06-09T05:09:24.617Z,65.31
2023-06-09T05:11:53.852Z,65.09
2023-06-09T05:14:22.532Z,64.47
2023-06-09T05:16:51.295Z,63.95
2023-06-09T05:19:19.252Z,64.16
2023-06-09T05:21:47.494Z,64.15
2023-06-09T05:24:16.028Z,63.96
2023-06-09T05:26:46.029Z,63.98
2023-06-09T05:29:14.598Z,63.89
2023-06-09T05:31:42.613Z,63.79
2023-06-09T05:34:10.859Z,63.58
2023-06-09T05:36:39.620Z,63.72
2023-06-09T05:39:09.568Z,63.88
2023-06-09T05:41:38.035Z,63.87
2023-06-09T05:44:06.045Z,63.98
2023-06-09T05:46:38.373Z,63.82
2023-06-09T05:49:07.169Z,63.73
2023-06-09T05:51:35.175Z,63.71
2023-06-09T05:54:03.521Z,63.87
2023-06-09T05:56:31.938Z,63.66
2023-06-09T05:59:03.637Z,63.47
2023-06-09T06:01:33.005Z,63.53
2023-06-09T06:04:01.359Z,63.49
2023-06-09T06:06:31.159Z,63.43
2023-06-09T06:08:59.234Z,63.37
2023-06-09T06:11:29.597Z,63.29
2023-06-09T06:13:57.900Z,63.38
2023-06-09T06:16:26.002Z,63.10
2023-06-09T06:18:54.079Z,62.97
2023-06-09T06:21:22.388Z,62.94
2023-06-09T06:23:50.914Z,62.84
2023-06-09T06:26:19.030Z,62.73
2023-06-09T06:28:47.196Z,62.23
2023-06-09T06:31:18.360Z,62.28
2023-06-09T06:33:46.771Z,62.39
2023-06-09T06:36:15.582Z,62.27
2023-06-09T06:38:43.531Z,62.18
2023-06-09T06:41:11.514Z,62.02
2023-06-09T06:43:39.505Z,61.85
2023-06-09T06:46:08.919Z,61.78
2023-06-09T06:48:39.973Z,61.81
2023-06-09T06:51:08.513Z,61.81
2023-06-09T06:53:38.262Z,61.50
2023-06-09T06:56:06.928Z,61.43
2023-06-09T06:58:34.959Z,61.65
2023-06-09T07:01:04.291Z,61.35
2023-06-09T07:03:34.496Z,61.07
2023-06-09T07:06:05.755Z,61.25
2023-06-09T07:08:33.868Z,61.31
2023-06-09T07:11:02.537Z,61.06
2023-06-09T07:13:30.652Z,61.13
2023-06-09T07:16:01.367Z,60.89
2023-06-09T07:18:30.386Z,60.70
2023-06-09T07:20:58.630Z,60.61
2023-06-09T07:23:27.069Z,60.52
2023-06-09T07:25:56.000Z,60.25
2023-06-09T07:28:24.289Z,60.05
2023-06-09T07:30:53.076Z,59.95
2023-06-09T07:33:21.157Z,59.82
2023-06-09T07:35:50.463Z,59.83
2023-06-09T07:38:18.964Z,59.64
2023-06-09T07:40:47.018Z,59.45
2023-06-09T07:43:15.011Z,59.30
2023-06-09T07:45:42.999Z,59.00
2023-06-09T07:48:11.143Z,58.85
2023-06-09T07:50:51.188Z,59.25
2023-06-09T07:53:27.155Z,59.39
2023-06-09T07:55:55.099Z,58.83
2023-06-09T07:58:23.021Z,58.74
2023-06-09T08:00:52.415Z,58.90
2023-06-09T08:03:20.647Z,58.64
2023-06-09T08:05:48.717Z,58.43
2023-06-09T08:08:18.072Z,58.16
2023-06-09T08:10:46.146Z,58.17
2023-06-09T08:13:17.100Z,58.21
2023-06-09T08:15:45.921Z,58.13
2023-06-09T08:18:14.533Z,57.75
2023-06-09T08:20:43.241Z,57.90
2023-06-09T08:23:11.735Z,57.94
2023-06-09T08:25:42.476Z,58.13
2023-06-09T08:28:12.472Z,58.14
2023-06-09T08:30:41.710Z,58.38
2023-06-09T08:33:10.883Z,58.42
2023-06-09T08:35:39.555Z,58.53
2023-06-09T08:38:08.439Z,58.73
2023-06-09T08:40:37.379Z,58.93
2023-06-09T08:43:11.916Z,59.05
2023-06-09T08:45:45.308Z,59.26
2023-06-09T08:48:20.450Z,59.44
2023-06-09T08:50:49.075Z,59.58
2023-06-09T08:53:18.784Z,59.84
2023-06-09T08:55:49.000Z,60.13
2023-06-09T08:58:17.853Z,60.24
2023-06-09T09:00:48.411Z,60.32
2023-06-09T09:03:18.756Z,60.49
2023-06-09T09:05:48.714Z,60.64
2023-06-09T09:08:18.580Z,60.67
2023-06-09T09:10:50.115Z,60.80
2023-06-09T09:13:19.605Z,60.83
2023-06-09T09:15:51.919Z,60.87
2023-06-09T09:18:23.598Z,60.80
2023-06-09T09:20:52.143Z,61.03
2023-06-09T09:23:30.080Z,61.03
2023-06-09T09:26:04.285Z,61.23
2023-06-09T09:28:44.482Z,61.41
2023-06-09T09:31:12.768Z,61.44
2023-06-09T09:33:49.104Z,61.56
2023-06-09T09:36:19.784Z,61.66
2023-06-09T09:38:47.899Z,61.62
2023-06-09T09:41:16.355Z,61.85
2023-06-09T09:43:47.621Z,61.86
2023-06-09T09:46:20.650Z,61.68
2023-06-09T09:48:50.435Z,61.86
2023-06-09T09:51:22.070Z,61.83
2023-06-09T09:53:53.268Z,61.87
2023-06-09T09:56:25.208Z,61.99
2023-06-09T09:58:54.878Z,62.20
2023-06-09T10:01:28.340Z,62.25
2023-06-09T10:03:57.054Z,62.19
2023-06-09T10:06:30.208Z,62.53
2023-06-09T10:08:59.472Z,62.54
2023-06-09T10:11:31.977Z,62.47
2023-06-09T10:14:03.062Z,62.65
2023-06-09T10:16:32.798Z,62.37
2023-06-09T10:19:01.946Z,62.36
2023-06-09T10:21:30.111Z,62.51
2023-06-09T10:23:59.637Z,62.13
2023-06-09T10:26:28.585Z,62.17
2023-06-09T10:28:56.698Z,62.24
2023-06-09T10:31:26.438Z,62.37
2023-06-09T10:33:54.688Z,62.39
2023-06-09T10:36:22.791Z,62.42
2023-06-09T10:38:55.106Z,62.42
2023-06-09T10:41:32.312Z,62.20
2023-06-09T10:44:10.172Z,62.48
2023-06-09T10:46:47.181Z,62.40
2023-06-09T10:49:30.520Z,62.32
2023-06-09T10:51:58.676Z,62.49
2023-06-09T10:54:27.444Z,62.60
2023-06-09T10:56:58.943Z,62.64
2023-06-09T10:59:27.001Z,62.64
2023-06-09T11:02:04.474Z,62.49
2023-06-09T11:04:50.223Z,62.49
2023-06-09T11:07:23.954Z,62.51
2023-06-09T11:09:51.880Z,62.68
2023-06-09T11:12:25.935Z,62.72
2023-06-09T11:14:59.284Z,62.74
2023-06-09T11:17:41.857Z,62.70
2023-06-09T11:20:10.862Z,62.95
2023-06-09T11:22:42.723Z,62.75
2023-06-09T11:25:20.393Z,62.72
2023-06-09T11:28:08.925Z,62.81
2023-06-09T11:31:06.750Z,62.80
2023-06-09T11:33:52.045Z,62.80
2023-06-09T11:36:26.707Z,62.50
2023-06-09T11:39:01.301Z,62.22
2023-06-09T11:41:29.546Z,61.87
2023-06-09T11:43:58.729Z,61.56
2023-06-09T11:46:27.350Z,61.46
2023-06-09T11:49:06.049Z,61.14
2023-06-09T11:51:57.327Z,61.02
2023-06-09T11:54:44.627Z,61.01
2023-06-09T11:57:19.333Z,60.82
2023-06-09T11:59:47.836Z,60.72
2023-06-09T12:02:18.224Z,60.38
2023-06-09T12:04:47.119Z,60.16
2023-06-09T12:07:15.554Z,59.95
2023-06-09T12:09:44.745Z,59.99
2023-06-09T12:12:12.865Z,59.73
2023-06-09T12:14:41.014Z,59.22
2023-06-09T12:17:11.078Z,59.08
2023-06-09T12:19:39.129Z,59.19
2023-06-09T12:22:07.412Z,59.23
2023-06-09T12:24:35.467Z,59.45
2023-06-09T12:27:14.113Z,59.49
2023-06-09T12:29:42.282Z,59.20
2023-06-09T12:32:10.891Z,58.68
2023-06-09T12:34:39.229Z,58.25
2023-06-09T12:37:07.871Z,58.03
2023-06-09T12:39:36.028Z,57.82
2023-06-09T12:42:14.377Z,57.14
2023-06-09T12:44:42.477Z,56.84
2023-06-09T12:47:17.190Z,56.67
2023-06-09T12:49:45.940Z,57.07
2023-06-09T12:52:14.061Z,57.13
2023-06-09T12:54:42.320Z,56.95
2023-06-09T12:57:10.294Z,56.90
2023-06-09T12:59:38.435Z,57.01
2023-06-09T13:02:06.944Z,57.42
2023-06-09T13:04:35.099Z,57.60
2023-06-09T13:07:03.121Z,57.78
2023-06-09T13:09:31.205Z,57.98
2023-06-09T13:12:01.181Z,58.02
2023-06-09T13:14:29.275Z,57.94
2023-06-09T13:16:57.350Z,58.15
2023-06-09T13:19:27.026Z,58.23
2023-06-09T13:21:55.018Z,58.32
2023-06-09T13:24:23.082Z,58.35
2023-06-09T13:26:51.293Z,58.23
2023-06-09T13:29:19.283Z,58.32
2023-06-09T13:31:47.262Z,58.40
2023-06-09T13:34:15.691Z,58.22
2023-06-09T13:36:44.941Z,58.11
2023-06-09T13:39:13.212Z,58.17
2023-06-09T13:41:41.724Z,58.28
2023-06-09T13:44:09.830Z,58.21
2023-06-09T13:46:39.540Z,58.35
2023-06-09T13:49:08.286Z,58.43
2023-06-09T13:51:37.961Z,58.50
2023-06-09T13:54:05.988Z,58.83
2023-06-09T13:56:34.004Z,58.72
2023-06-09T13:59:02.089Z,58.73
2023-06-09T14:01:31.254Z,58.76
2023-06-09T14:03:59.494Z,59.10
2023-06-09T14:06:27.785Z,59.52
2023-06-09T14:08:56.212Z,59.44
2023-06-09T14:11:24.315Z,59.75
2023-06-09T14:13:52.464Z,59.67
2023-06-09T14:16:21.498Z,59.70
2023-06-09T14:18:49.561Z,59.97
2023-06-09T14:21:17.512Z,60.22
2023-06-09T14:23:45.673Z,60.20
2023-06-09T14:26:15.222Z,60.17
2023-06-09T14:28:43.259Z,60.32
2023-06-09T14:31:11.410Z,60.32
2023-06-09T14:33:39.362Z,60.38
2023-06-09T14:36:07.393Z,60.43
2023-06-09T14:38:35.409Z,60.52
2023-06-09T14:41:03.488Z,60.66
2023-06-09T14:43:31.667Z,60.60
2023-06-09T14:46:00.550Z,60.55
2023-06-09T14:48:28.754Z,60.38
2023-06-09T14:50:56.760Z,60.30
2023-06-09T14:53:24.733Z,60.38
2023-06-09T14:55:52.848Z,60.17
2023-06-09T14:58:20.908Z,60.56
2023-06-09T15:00:49.016Z,60.61
2023-06-09T15:03:18.206Z,60.37
2023-06-09T15:05:47.730Z,60.54
2023-06-09T15:08:15.831Z,60.48
2023-06-09T15:10:45.718Z,60.33
2023-06-09T15:13:16.107Z,60.37
2023-06-09T15:15:46.531Z,60.43
2023-06-09T15:18:15.683Z,60.35
2023-06-09T15:20:44.219Z,60.57
2023-06-09T15:23:13.232Z,60.45
2023-06-09T15:25:44.997Z,60.49
2023-06-09T15:28:15.645Z,60.48
2023-06-09T15:30:46.313Z,60.30
2023-06-09T15:33:22.167Z,60.26
2023-06-09T15:35:55.371Z,60.19
2023-06-09T15:38:25.860Z,60.23
2023-06-09T15:40:55.543Z,60.16
2023-06-09T15:43:24.849Z,60.30
2023-06-09T15:45:55.116Z,60.26
2023-06-09T15:48:24.336Z,60.09
2023-06-09T15:50:52.777Z,60.00
2023-06-09T15:53:22.035Z,59.63
2023-06-09T15:55:52.123Z,59.88
2023-06-09T15:58:20.648Z,59.81
2023-06-09T16:00:50.772Z,59.86
2023-06-09T16:03:20.130Z,59.82
2023-06-09T16:05:50.162Z,59.74
2023-06-09T16:08:19.924Z,59.62
2023-06-09T16:10:52.353Z,59.52
2023-06-09T16:13:22.069Z,59.58
2023-06-09T16:15:51.909Z,59.70
2023-06-09T16:18:22.965Z,59.63
2023-06-09T16:20:51.427Z,59.53
2023-06-09T16:23:19.416Z,59.51
2023-06-09T16:25:47.440Z,59.59
2023-06-09T16:28:15.797Z,59.53
2023-06-09T16:30:43.833Z,59.27
2023-06-09T16:33:12.190Z,59.21
2023-06-09T16:35:40.841Z,59.05
2023-06-09T16:38:08.968Z,59.16
2023-06-09T16:40:37.421Z,59.21
2023-06-09T16:43:05.728Z,59.22
2023-06-09T16:45:33.799Z,59.26
2023-06-09T16:48:02.441Z,59.09
2023-06-09T16:50:30.613Z,58.96
2023-06-09T16:52:58.937Z,59.19
2023-06-09T16:55:27.215Z,59.12
2023-06-09T16:57:55.158Z,59.16
2023-06-09T17:00:23.604Z,59.20
2023-06-09T17:02:55.852Z,59.25
2023-06-09T17:05:25.677Z,59.40
2023-06-09T17:07:53.795Z,59.60
2023-06-09T17:10:22.823Z,59.57
2023-06-09T17:12:51.183Z,59.70
2023-06-09T17:15:19.410Z,59.66
2023-06-09T17:17:47.507Z,59.77
2023-06-09T17:20:15.770Z,59.89
2023-06-09T17:22:43.832Z,59.80
2023-06-09T17:25:12.210Z,59.87
2023-06-09T17:27:40.418Z,59.83
2023-06-09T17:30:14.325Z,59.87
2023-06-09T17:32:44.982Z,60.05
2023-06-09T17:35:14.229Z,60.03
2023-06-09T17:37:42.933Z,60.27
2023-06-09T17:40:12.345Z,60.18
2023-06-09T17:42:41.065Z,60.39
2023-06-09T17:45:11.232Z,60.33
2023-06-09T17:47:40.452Z,60.32
2023-06-09T17:50:09.533Z,60.51
2023-06-09T17:52:37.660Z,60.48
2023-06-09T17:55:06.734Z,60.41
2023-06-09T17:57:35.346Z,60.36
2023-06-09T18:00:06.343Z,61.20
2023-06-09T18:02:37.748Z,61.51
2023-06-09T18:05:06.243Z,61.20
2023-06-09T18:07:34.342Z,61.52
2023-06-09T18:10:04.733Z,61.00
2023-06-09T18:12:32.943Z,61.22
2023-06-09T18:15:00.988Z,61.59
2023-06-09T18:17:29.695Z,61.43
2023-06-09T18:19:57.911Z,61.21
2023-06-09T18:22:26.171Z,60.93
2023-06-09T18:24:54.317Z,61.08
2023-06-09T18:27:22.496Z,61.42
2023-06-09T18:29:50.454Z,61.64
2023-06-09T18:32:18.437Z,61.94
2023-06-09T18:34:49.680Z,62.00
2023-06-09T18:37:18.061Z,61.96
2023-06-09T18:51:44.442Z,62.42
2023-06-09T18:54:11.386Z,62.58
2023-06-09T18:56:37.918Z,62.69
2023-06-09T18:59:04.624Z,62.96
2023-06-09T19:01:31.294Z,63.32
2023-06-09T19:03:58.756Z,63.28
2023-06-09T19:06:25.501Z,63.49
2023-06-09T19:08:53.308Z,63.73
2023-06-09T19:11:21.092Z,63.75
2023-06-09T19:13:49.199Z,63.96
2023-06-09T19:16:15.900Z,64.08
2023-06-09T19:18:42.711Z,64.38
2023-06-09T19:21:09.328Z,64.55
2023-06-09T19:23:36.774Z,64.74
2023-06-09T19:26:03.868Z,64.94
2023-06-09T19:28:30.989Z,65.10
2023-06-09T19:30:57.846Z,65.59
2023-06-09T19:33:24.937Z,65.87
2023-06-09T19:35:52.506Z,65.81
2023-06-09T19:38:19.482Z,65.86
2023-06-09T19:40:46.418Z,66.27
2023-06-09T19:43:14.424Z,66.87
2023-06-09T19:45:41.260Z,67.23
2023-06-09T19:48:08.668Z,66.87
2023-06-09T19:50:37.277Z,66.99
2023-06-09T19:53:05.613Z,67.07
2023-06-09T19:55:32.381Z,67.18
2023-06-09T19:57:59.272Z,67.53
2023-06-09T20:00:26.092Z,68.40
2023-06-09T20:02:52.975Z,68.24
2023-06-09T20:05:20.169Z,68.25
2023-06-09T20:07:46.819Z,68.46
2023-06-09T20:10:13.461Z,69.02
2023-06-09T20:12:41.077Z,69.07
2023-06-09T20:15:09.260Z,68.77
2023-06-09T20:17:36.107Z,68.61
2023-06-09T20:20:04.490Z,68.84
2023-06-09T20:22:31.547Z,68.94
2023-06-09T20:24:59.180Z,68.99
2023-06-09T20:27:26.083Z,69.39
2023-06-09T20:29:52.673Z,69.69
2023-06-09T20:32:19.392Z,69.69
2023-06-09T20:34:46.218Z,70.06
2023-06-09T20:37:12.872Z,70.73
2023-06-09T20:39:41.479Z,70.69
2023-06-09T20:42:08.580Z,70.69
2023-06-09T20:44:35.169Z,70.66
2023-06-09T20:47:02.977Z,70.64
2023-06-09T20:49:29.804Z,70.57
2023-06-09T20:51:56.604Z,70.67
2023-06-09T20:54:24.351Z,71.21
2023-06-09T20:56:51.035Z,71.20
2023-06-09T20:59:17.788Z,71.02
2023-06-09T21:01:46.906Z,71.15
2023-06-09T21:04:14.728Z,71.21
2023-06-09T21:06:41.849Z,71.13
2023-06-09T21:09:08.452Z,71.14
2023-06-09T21:11:35.268Z,71.26
2023-06-09T21:14:02.186Z,71.33
2023-06-09T21:16:28.740Z,71.51
2023-06-09T21:18:55.321Z,71.65
2023-06-09T21:21:22.406Z,71.58
2023-06-09T21:23:49.895Z,71.53
2023-06-09T21:26:16.718Z,71.58
2023-06-09T21:28:43.405Z,71.51
2023-06-09T21:31:11.274Z,71.65
2023-06-09T21:33:38.104Z,71.71
2023-06-09T21:36:05.170Z,71.81
2023-06-09T21:38:31.802Z,71.94
2023-06-09T21:40:58.360Z,72.06
2023-06-09T21:43:24.911Z,72.24
2023-06-09T21:45:51.454Z,72.26
2023-06-09T21:48:18.546Z,72.27
2023-06-09T21:50:45.264Z,72.36
2023-06-09T21:53:11.849Z,72.33
2023-06-09T21:55:38.813Z,72.57
2023-06-09T21:58:05.625Z,72.78
2023-06-09T22:00:33.136Z,72.87
2023-06-09T22:03:00.931Z,72.87
2023-06-09T22:05:28.015Z,73.01
2023-06-09T22:07:55.220Z,73.12
2023-06-09T22:10:21.930Z,73.18
2023-06-09T22:12:49.003Z,73.19
2023-06-09T22:15:16.705Z,73.28
2023-06-09T22:17:45.251Z,73.63
2023-06-09T22:20:14.044Z,73.53
2023-06-09T22:22:41.512Z,73.56
2023-06-09T22:25:09.185Z,73.89
2023-06-09T22:27:35.958Z,73.85
2023-06-09T22:30:03.780Z,74.03
2023-06-09T22:32:30.505Z,73.99
2023-06-09T22:34:58.173Z,74.01
2023-06-09T22:37:25.488Z,74.03
2023-06-09T22:39:52.916Z,74.34
2023-06-09T22:42:19.533Z,74.38
2023-06-09T22:44:46.266Z,74.53
2023-06-09T22:47:13.975Z,74.64
2023-06-09T22:50:09.879Z,74.57
2023-06-09T22:52:45.376Z,74.72
2023-06-09T22:55:15.723Z,74.73
2023-06-09T22:57:47.510Z,74.87
2023-06-09T23:00:15.316Z,74.83
2023-06-09T23:02:42.579Z,74.91
2023-06-09T23:05:14.662Z,75.14
2023-06-09T23:07:41.846Z,75.27
2023-06-09T23:10:12.675Z,75.34
2023-06-09T23:12:40.728Z,75.15
2023-06-09T23:15:09.822Z,75.49
2023-06-09T23:17:37.952Z,75.61
2023-06-09T23:20:07.642Z,75.79
2023-06-09T23:22:37.050Z,75.76
2023-06-09T23:25:06.246Z,75.96
2023-06-09T23:27:33.861Z,75.83
2023-06-09T23:30:01.896Z,75.98
2023-06-09T23:32:28.577Z,76.16
2023-06-09T23:34:56.160Z,76.25
2023-06-09T23:37:23.318Z,76.24
2023-06-09T23:39:50.478Z,76.22
2023-06-09T23:42:17.139Z,76.22
2023-06-09T23:44:43.766Z,76.47
2023-06-09T23:47:10.430Z,76.51
2023-06-09T23:49:36.967Z,76.59
2023-06-09T23:52:03.857Z,76.72
2023-06-09T23:54:31.317Z,76.83
2023-06-09T23:56:57.987Z,76.77
2023-06-09T23:59:24.744Z,76.84
